createdAt,value
2022-12-04T00:00:41.554Z,99996.19
2022-12-04T00:05:43.232Z,100004.91
2022-12-04T00:10:44.954Z,100017.81
2022-12-04T00:15:46.618Z,100011.28
2022-12-04T00:20:48.875Z,100003.56
2022-12-04T00:25:50.590Z,99999.53
2022-12-04T00:30:52.277Z,100000.16
2022-12-04T00:36:01.813Z,99993.59
2022-12-04T00:41:04.412Z,99998.69
2022-12-04T00:46:06.625Z,100000.78
2022-12-04T00:51:14.317Z,100007.03
2022-12-04T00:56:20.950Z,99998.03
2022-12-04T01:01:24.425Z,99988.66
2022-12-04T01:06:32.500Z,99993.31
2022-12-04T01:11:34.578Z,99988.88
2022-12-04T01:16:38.857Z,99986.19
2022-12-04T01:21:40.934Z,99986.22
2022-12-04T01:26:42.620Z,99979.84
2022-12-04T01:31:44.440Z,99975.19
2022-12-04T01:36:46.405Z,99971.59
2022-12-04T01:41:48.145Z,99967.25
2022-12-04T01:47:00.516Z,99956.81
2022-12-04T01:52:11.706Z,99942.44
2022-12-04T01:57:17.752Z,99941.88
2022-12-04T02:02:24.527Z,99937.66
2022-12-04T02:07:26.769Z,99932.19
2022-12-04T02:13:06.948Z,99921.91
2022-12-04T02:18:18.874Z,99917.69
2022-12-04T02:23:41.080Z,99916.09
2022-12-04T02:28:45.797Z,99923.09
2022-12-04T02:33:54.230Z,99920.69
2022-12-04T02:39:04.837Z,99922.56
2022-12-04T02:44:20.336Z,99916.16
2022-12-04T02:49:31.046Z,99922.13
2022-12-04T02:54:38.774Z,99919.28
2022-12-04T02:59:44.091Z,99920.63
2022-12-04T03:04:47.361Z,99910.13
2022-12-04T03:09:56.521Z,99905.63
2022-12-04T03:15:12.620Z,99899.63
2022-12-04T03:20:16.718Z,99902.13
2022-12-04T03:25:18.627Z,99917.06
2022-12-04T03:30:22.228Z,99915.88
2022-12-04T03:35:30.069Z,99906.91
2022-12-04T03:40:59.713Z,99915.78
2022-12-04T03:46:08.207Z,99916.25
2022-12-04T03:51:19.599Z,99915.44
2022-12-04T03:56:32.487Z,99912.50
2022-12-04T04:01:40.392Z,99913.81
2022-12-04T04:06:56.170Z,99918.97
2022-12-04T04:12:08.298Z,99914.34
2022-12-04T04:17:38.387Z,99915.19
2022-12-04T04:22:59.393Z,99918.56
2022-12-04T04:28:01.160Z,99920.03
2022-12-04T04:33:16.648Z,99935.03
2022-12-04T04:38:31.938Z,99911.31
2022-12-04T04:43:59.819Z,99912.59
2022-12-04T04:49:04.074Z,99915.19
2022-12-04T04:54:10.261Z,99914.81
2022-12-04T04:59:12.790Z,99912.25
2022-12-04T05:04:14.889Z,99909.66
2022-12-04T05:09:16.611Z,99910.66
2022-12-04T05:14:18.271Z,99900.69
2022-12-04T05:19:38.276Z,99909.34
2022-12-04T05:24:40.019Z,99908.06
2022-12-04T05:29:41.715Z,99905.53
2022-12-04T05:34:44.131Z,99894.34
2022-12-04T05:39:46.122Z,99894.19
2022-12-04T05:44:50.094Z,99892.28
2022-12-04T05:49:52.357Z,99879.00
2022-12-04T05:54:54.100Z,99888.06
2022-12-04T05:59:56.145Z,99892.03
2022-12-04T06:04:57.940Z,99876.56
2022-12-04T06:09:59.636Z,99884.38
2022-12-04T06:15:01.340Z,99884.84
2022-12-04T06:20:06.685Z,99885.00
2022-12-04T06:25:12.732Z,99882.75
2022-12-04T06:30:14.463Z,99890.34
2022-12-04T06:35:16.373Z,99893.00
2022-12-04T06:40:18.173Z,99880.81
2022-12-04T06:45:19.843Z,99898.41
2022-12-04T06:50:21.518Z,99898.28
2022-12-04T06:55:23.197Z,99906.16
2022-12-04T07:00:24.855Z,99905.06
2022-12-04T07:05:27.599Z,99904.56
2022-12-04T07:10:29.272Z,99904.72
2022-12-04T07:15:32.806Z,99895.88
2022-12-04T07:20:34.544Z,99900.25
2022-12-04T07:25:40.579Z,99898.44
2022-12-04T07:30:42.283Z,99900.72
2022-12-04T07:35:44.014Z,99900.47
2022-12-04T07:40:45.665Z,99904.69
2022-12-04T07:45:47.376Z,99898.91
2022-12-04T07:50:49.295Z,99893.13
2022-12-04T07:55:53.940Z,99894.56
2022-12-04T08:00:55.707Z,99895.91
2022-12-04T08:06:01.007Z,99893.47
2022-12-04T08:11:11.452Z,99895.97
2022-12-04T08:16:15.731Z,99898.91
2022-12-04T08:21:20.966Z,99896.34
2022-12-04T08:26:25.164Z,99900.19
2022-12-04T08:31:29.506Z,99901.78
2022-12-04T08:36:31.686Z,99895.28
2022-12-04T08:41:33.482Z,99897.44
2022-12-04T08:46:35.638Z,99899.00
2022-12-04T08:51:37.595Z,99900.06
2022-12-04T08:56:39.412Z,99896.16
2022-12-04T09:01:41.199Z,99898.06
2022-12-04T09:06:42.916Z,99890.91
2022-12-04T09:11:47.649Z,99890.00
2022-12-04T09:16:49.311Z,99882.44
2022-12-04T09:21:50.968Z,99889.47
2022-12-04T09:26:52.626Z,99880.47
2022-12-04T09:31:54.362Z,99896.88
2022-12-04T09:36:56.019Z,99895.28
2022-12-04T09:42:15.981Z,99890.28
2022-12-04T09:47:34.518Z,99904.09
2022-12-04T09:52:56.221Z,99889.19
2022-12-04T09:58:02.584Z,99883.84
2022-12-04T10:03:07.730Z,99880.69
2022-12-04T10:08:35.577Z,99870.72
2022-12-04T10:14:03.058Z,99876.00
2022-12-04T10:19:23.119Z,99867.81
2022-12-04T10:24:39.813Z,99868.00
2022-12-04T10:29:43.791Z,99865.63
2022-12-04T10:34:48.536Z,99862.53
2022-12-04T10:40:02.821Z,99863.72
2022-12-04T10:45:06.432Z,99850.97
2022-12-04T10:50:17.227Z,99849.06
2022-12-04T10:55:38.289Z,99845.97
2022-12-04T11:00:40.039Z,99844.72
2022-12-04T11:05:52.980Z,99840.97
2022-12-04T11:11:01.462Z,99847.06
2022-12-04T11:16:03.707Z,99851.84
2022-12-04T11:21:16.998Z,99853.69
2022-12-04T11:26:33.821Z,99843.44
2022-12-04T11:31:35.562Z,99833.78
2022-12-04T11:36:40.656Z,99844.97
2022-12-04T11:41:42.539Z,99846.69
2022-12-04T11:46:52.744Z,99839.53
2022-12-04T11:52:03.622Z,99842.03
2022-12-04T11:57:45.741Z,99831.38
2022-12-04T12:03:12.026Z,99832.09
2022-12-04T12:08:38.575Z,99821.72
2022-12-04T12:13:52.039Z,99822.44
2022-12-04T12:19:25.744Z,99810.34
2022-12-04T12:24:32.119Z,99810.91
2022-12-04T12:30:07.204Z,99800.25
2022-12-04T12:35:24.782Z,99792.94
2022-12-04T12:40:34.663Z,99797.34
2022-12-04T12:45:42.226Z,99791.25
2022-12-04T12:51:29.559Z,99783.41
2022-12-04T12:56:41.252Z,99780.03
2022-12-04T13:01:54.769Z,99766.69
2022-12-04T13:07:26.055Z,99776.22
2022-12-04T13:12:28.642Z,99769.50
2022-12-04T13:17:38.542Z,99756.88
2022-12-04T13:22:59.806Z,99750.66
2022-12-04T13:28:20.223Z,99748.16
2022-12-04T13:33:29.298Z,99749.97
2022-12-04T13:39:09.875Z,99763.31
2022-12-04T13:44:21.222Z,99763.47
2022-12-04T13:49:34.410Z,99759.69
2022-12-04T13:54:36.924Z,99748.84
2022-12-04T13:59:40.100Z,99755.44
2022-12-04T14:04:52.157Z,99766.00
2022-12-04T14:09:56.775Z,99767.50
2022-12-04T14:15:03.225Z,99761.63
2022-12-04T14:20:26.391Z,99769.19
2022-12-04T14:25:39.848Z,99771.72
2022-12-04T14:30:44.156Z,99767.75
2022-12-04T14:35:54.720Z,99758.25
2022-12-04T14:40:58.314Z,99769.78
2022-12-04T14:46:13.893Z,99757.28
2022-12-04T14:51:41.823Z,99749.53
2022-12-04T14:57:01.716Z,99744.78
2022-12-04T15:02:04.662Z,99741.25
2022-12-04T15:07:06.496Z,99740.94
2022-12-04T15:12:34.561Z,99740.47
2022-12-04T15:17:36.301Z,99740.13
2022-12-04T15:22:38.376Z,99730.00
2022-12-04T15:27:40.324Z,99727.06
2022-12-04T15:32:42.311Z,99712.91
2022-12-04T15:37:44.059Z,99720.91
2022-12-04T15:42:45.784Z,99733.53
2022-12-04T15:47:47.403Z,99724.78
2022-12-04T15:53:03.863Z,99719.38
2022-12-04T15:58:18.127Z,99705.72
2022-12-04T16:03:31.041Z,99715.81
2022-12-04T16:08:37.655Z,99709.03
2022-12-04T16:13:39.333Z,99717.03
2022-12-04T16:18:41.442Z,99720.44
2022-12-04T16:23:43.679Z,99725.69
2022-12-04T16:28:46.070Z,99718.59
2022-12-04T16:33:47.731Z,99714.63
2022-12-04T16:38:50.417Z,99706.13
2022-12-04T16:43:57.424Z,99706.13
2022-12-04T16:49:04.282Z,99715.81
2022-12-04T16:54:11.471Z,99716.44
2022-12-04T16:59:13.214Z,99713.06
2022-12-04T17:04:16.625Z,99710.34
2022-12-04T17:09:18.768Z,99710.22
2022-12-04T17:14:20.452Z,99700.66
2022-12-04T17:19:22.115Z,99719.66
2022-12-04T17:24:23.779Z,99708.75
2022-12-04T17:29:25.458Z,99703.78
2022-12-04T17:34:27.127Z,99703.19
2022-12-04T17:39:29.122Z,99707.13
2022-12-04T17:44:30.799Z,99700.13
2022-12-04T17:49:32.564Z,99708.88
2022-12-04T17:54:34.666Z,99701.97
2022-12-04T17:59:36.353Z,99705.03
2022-12-04T18:04:38.175Z,99697.00
2022-12-04T18:09:40.052Z,99694.50
2022-12-04T18:14:41.840Z,99695.63
2022-12-04T18:19:43.573Z,99688.94
2022-12-04T18:24:45.237Z,99691.72
2022-12-04T18:29:46.917Z,99688.06
2022-12-04T18:34:48.615Z,99693.09
2022-12-04T18:39:51.099Z,99687.88
2022-12-04T18:44:52.794Z,99694.84
2022-12-04T18:49:54.738Z,99691.78
2022-12-04T18:54:56.779Z,99690.53
2022-12-04T18:59:58.817Z,99690.72
2022-12-04T19:05:00.887Z,99685.47
2022-12-04T19:10:10.724Z,99695.47
2022-12-04T19:15:22.983Z,99695.63
2022-12-04T19:20:24.650Z,99696.69
2022-12-04T19:25:26.331Z,99696.34
2022-12-04T19:30:28.166Z,99710.09
2022-12-04T19:35:29.983Z,99699.69
2022-12-04T19:40:31.660Z,99696.16
2022-12-04T19:45:33.431Z,99707.63
2022-12-04T19:50:35.168Z,99695.78
2022-12-04T19:55:37.679Z,99696.22
2022-12-04T20:00:39.459Z,99694.25
2022-12-04T20:05:41.673Z,99698.50
2022-12-04T20:10:43.540Z,99701.19
2022-12-04T20:15:45.243Z,99696.69
2022-12-04T20:20:57.747Z,99699.81
2022-12-04T20:26:04.759Z,99700.06
2022-12-04T20:31:28.337Z,99696.06
2022-12-04T20:36:31.849Z,99697.31
2022-12-04T20:41:33.865Z,99695.69
2022-12-04T20:46:38.317Z,99689.59
2022-12-04T20:51:41.860Z,99696.63
2022-12-04T20:56:44.372Z,99696.06
2022-12-04T21:01:46.989Z,99686.47
2022-12-04T21:06:49.399Z,99682.28
2022-12-04T21:11:53.657Z,99679.50
2022-12-04T21:16:55.902Z,99678.44
2022-12-04T21:21:57.617Z,99680.78
2022-12-04T21:26:59.288Z,99668.97
2022-12-04T21:32:01.227Z,99672.16
2022-12-04T21:37:02.973Z,99661.75
2022-12-04T21:42:23.364Z,99661.56
2022-12-04T21:47:25.470Z,99639.94
2022-12-04T21:52:27.167Z,99647.31
2022-12-04T21:57:29.252Z,99647.19
2022-12-04T22:02:31.821Z,99644.09
2022-12-04T22:07:33.618Z,99650.41
2022-12-04T22:12:50.977Z,99654.59
2022-12-04T22:17:53.113Z,99645.81
2022-12-04T22:22:54.777Z,99660.78
2022-12-04T22:27:57.530Z,99656.09
2022-12-04T22:32:59.299Z,99648.69
2022-12-04T22:38:01.002Z,99646.94
2022-12-04T22:43:02.678Z,99652.38
2022-12-04T22:48:04.722Z,99651.53
2022-12-04T22:53:06.412Z,99657.97
2022-12-04T22:58:08.102Z,99653.09
2022-12-04T23:03:09.961Z,99653.94
2022-12-04T23:08:11.820Z,99652.25
2022-12-04T23:13:13.746Z,99644.66
2022-12-04T23:18:15.509Z,99639.63
2022-12-04T23:23:17.217Z,99631.91
2022-12-04T23:28:18.887Z,99642.00
2022-12-04T23:33:20.592Z,99642.59
2022-12-04T23:38:23.958Z,99640.75
2022-12-04T23:43:25.680Z,99637.97
2022-12-04T23:48:28.026Z,99646.59
2022-12-04T23:53:29.760Z,99652.19
2022-12-04T23:58:32.603Z,99650.19
